sensor_id;sensor_type;location;lat;lon;timestamp;temperature;humidity
2010;DHT22;1008;47.404;8.502;2022-07-23T00:01:19;24.60;99.90
2010;DHT22;1008;47.404;8.502;2022-07-23T00:03:46;24.40;99.90
2010;DHT22;1008;47.404;8.502;2022-07-23T00:06:13;24.40;99.90
2010;DHT22;1008;47.404;8.502;2022-07-23T00:08:39;24.40;99.90
2010;DHT22;1008;47.404;8.502;2022-07-23T00:11:06;24.40;99.90
2010;DHT22;1008;47.404;8.502;2022-07-23T00:13:35;24.30;99.90
2010;DHT22;1008;47.404;8.502;2022-07-23T00:16:02;24.40;99.90
2010;DHT22;1008;47.404;8.502;2022-07-23T00:18:29;24.30;99.90
2010;DHT22;1008;47.404;8.502;2022-07-23T00:20:56;24.20;99.90
2010;DHT22;1008;47.404;8.502;2022-07-23T00:23:23;24.10;99.90
2010;DHT22;1008;47.404;8.502;2022-07-23T00:25:50;24.00;99.90
2010;DHT22;1008;47.404;8.502;2022-07-23T00:28:17;24.20;99.90
2010;DHT22;1008;47.404;8.502;2022-07-23T00:30:46;24.20;99.90
2010;DHT22;1008;47.404;8.502;2022-07-23T00:33:13;24.30;99.90
2010;DHT22;1008;47.404;8.502;2022-07-23T00:35:41;24.50;99.90
2010;DHT22;1008;47.404;8.502;2022-07-23T00:38:08;24.30;99.90
2010;DHT22;1008;47.404;8.502;2022-07-23T00:40:36;24.20;99.90
2010;DHT22;1008;47.404;8.502;2022-07-23T00:43:04;24.20;99.90
2010;DHT22;1008;47.404;8.502;2022-07-23T00:45:31;24.30;99.90
2010;DHT22;1008;47.404;8.502;2022-07-23T00:47:59;24.30;99.90
2010;DHT22;1008;47.404;8.502;2022-07-23T00:50:27;24.40;99.90
2010;DHT22;1008;47.404;8.502;2022-07-23T00:52:54;24.40;99.90
2010;DHT22;1008;47.404;8.502;2022-07-23T00:55:21;24.20;99.90
2010;DHT22;1008;47.404;8.502;2022-07-23T00:57:50;24.10;99.90
2010;DHT22;1008;47.404;8.502;2022-07-23T01:00:17;24.10;99.90
2010;DHT22;1008;47.404;8.502;2022-07-23T01:02:44;24.00;99.90
2010;DHT22;1008;47.404;8.502;2022-07-23T01:05:12;24.10;99.90
2010;DHT22;1008;47.404;8.502;2022-07-23T01:07:39;23.70;99.90
2010;DHT22;1008;47.404;8.502;2022-07-23T01:10:07;23.60;99.90
2010;DHT22;1008;47.404;8.502;2022-07-23T01:12:54;23.60;99.90
2010;DHT22;1008;47.404;8.502;2022-07-23T01:15:21;23.70;99.90
2010;DHT22;1008;47.404;8.502;2022-07-23T01:17:48;23.80;99.90
2010;DHT22;1008;47.404;8.502;2022-07-23T01:20:16;23.70;99.90
2010;DHT22;1008;47.404;8.502;2022-07-23T01:22:45;23.60;99.90
2010;DHT22;1008;47.404;8.502;2022-07-23T01:25:13;23.50;99.90
2010;DHT22;1008;47.404;8.502;2022-07-23T01:27:39;23.50;99.90
2010;DHT22;1008;47.404;8.502;2022-07-23T01:30:08;23.40;99.90
2010;DHT22;1008;47.404;8.502;2022-07-23T01:32:34;23.30;99.90
2010;DHT22;1008;47.404;8.502;2022-07-23T01:35:03;23.20;99.90
2010;DHT22;1008;47.404;8.502;2022-07-23T01:37:30;23.20;99.90
2010;DHT22;1008;47.404;8.502;2022-07-23T01:39:58;23.30;99.90
2010;DHT22;1008;47.404;8.502;2022-07-23T01:42:25;23.10;99.90
2010;DHT22;1008;47.404;8.502;2022-07-23T01:44:51;23.20;99.90
2010;DHT22;1008;47.404;8.502;2022-07-23T01:47:18;23.30;99.90
2010;DHT22;1008;47.404;8.502;2022-07-23T01:49:45;23.30;99.90
2010;DHT22;1008;47.404;8.502;2022-07-23T01:52:12;23.40;99.90
2010;DHT22;1008;47.404;8.502;2022-07-23T01:54:41;23.40;99.90
2010;DHT22;1008;47.404;8.502;2022-07-23T01:57:09;23.40;99.90
2010;DHT22;1008;47.404;8.502;2022-07-23T01:59:36;23.30;99.90
2010;DHT22;1008;47.404;8.502;2022-07-23T02:02:05;23.40;99.90
2010;DHT22;1008;47.404;8.502;2022-07-23T02:04:31;23.20;99.90
2010;DHT22;1008;47.404;8.502;2022-07-23T02:07:01;23.10;99.90
2010;DHT22;1008;47.404;8.502;2022-07-23T02:09:28;23.30;99.90
2010;DHT22;1008;47.404;8.502;2022-07-23T02:11:54;23.30;99.90
2010;DHT22;1008;47.404;8.502;2022-07-23T02:14:23;23.20;99.90
2010;DHT22;1008;47.404;8.502;2022-07-23T02:16:49;23.00;99.90
2010;DHT22;1008;47.404;8.502;2022-07-23T02:19:16;22.80;99.90
2010;DHT22;1008;47.404;8.502;2022-07-23T02:21:43;22.70;99.90
2010;DHT22;1008;47.404;8.502;2022-07-23T02:24:10;22.60;99.90
2010;DHT22;1008;47.404;8.502;2022-07-23T02:26:37;22.80;99.90
2010;DHT22;1008;47.404;8.502;2022-07-23T02:29:04;23.00;99.90
2010;DHT22;1008;47.404;8.502;2022-07-23T02:31:32;23.10;99.90
2010;DHT22;1008;47.404;8.502;2022-07-23T02:33:59;23.10;99.90
2010;DHT22;1008;47.404;8.502;2022-07-23T02:36:26;23.20;99.90
2010;DHT22;1008;47.404;8.502;2022-07-23T02:38:53;23.20;99.90
2010;DHT22;1008;47.404;8.502;2022-07-23T02:41:20;23.20;99.90
2010;DHT22;1008;47.404;8.502;2022-07-23T02:43:47;23.20;99.90
2010;DHT22;1008;47.404;8.502;2022-07-23T02:46:13;23.20;99.90
2010;DHT22;1008;47.404;8.502;2022-07-23T02:48:42;23.20;99.90
2010;DHT22;1008;47.404;8.502;2022-07-23T02:51:08;23.10;99.90
2010;DHT22;1008;47.404;8.502;2022-07-23T02:53:35;23.00;99.90
2010;DHT22;1008;47.404;8.502;2022-07-23T02:56:02;22.90;99.90
2010;DHT22;1008;47.404;8.502;2022-07-23T02:58:29;22.90;99.90
2010;DHT22;1008;47.404;8.502;2022-07-23T03:00:56;23.00;99.90
2010;DHT22;1008;47.404;8.502;2022-07-23T03:03:22;23.00;99.90
2010;DHT22;1008;47.404;8.502;2022-07-23T03:05:51;23.20;99.90
2010;DHT22;1008;47.404;8.502;2022-07-23T03:08:17;23.10;99.90
2010;DHT22;1008;47.404;8.502;2022-07-23T03:10:44;23.00;99.90
2010;DHT22;1008;47.404;8.502;2022-07-23T03:13:11;23.00;99.90
2010;DHT22;1008;47.404;8.502;2022-07-23T03:15:37;23.00;99.90
2010;DHT22;1008;47.404;8.502;2022-07-23T03:18:04;23.00;99.90
2010;DHT22;1008;47.404;8.502;2022-07-23T03:20:31;23.00;99.90
2010;DHT22;1008;47.404;8.502;2022-07-23T03:22:59;22.90;99.90
2010;DHT22;1008;47.404;8.502;2022-07-23T03:25:26;22.70;99.90
2010;DHT22;1008;47.404;8.502;2022-07-23T03:27:53;22.70;99.90
2010;DHT22;1008;47.404;8.502;2022-07-23T03:30:19;22.80;99.90
2010;DHT22;1008;47.404;8.502;2022-07-23T03:32:46;22.70;99.90
2010;DHT22;1008;47.404;8.502;2022-07-23T03:35:13;22.60;99.90
2010;DHT22;1008;47.404;8.502;2022-07-23T03:37:40;22.60;99.90
2010;DHT22;1008;47.404;8.502;2022-07-23T03:40:09;22.70;99.90
2010;DHT22;1008;47.404;8.502;2022-07-23T03:42:36;22.70;99.90
2010;DHT22;1008;47.404;8.502;2022-07-23T03:45:05;22.60;99.90
2010;DHT22;1008;47.404;8.502;2022-07-23T03:47:32;22.40;99.90
2010;DHT22;1008;47.404;8.502;2022-07-23T03:49:59;22.60;99.90
2010;DHT22;1008;47.404;8.502;2022-07-23T03:52:25;22.40;99.90
2010;DHT22;1008;47.404;8.502;2022-07-23T03:54:52;22.40;99.90
2010;DHT22;1008;47.404;8.502;2022-07-23T03:57:20;22.40;99.90
2010;DHT22;1008;47.404;8.502;2022-07-23T03:59:47;22.60;99.90
2010;DHT22;1008;47.404;8.502;2022-07-23T04:02:14;22.50;99.90
2010;DHT22;1008;47.404;8.502;2022-07-23T04:04:41;22.40;99.90
2010;DHT22;1008;47.404;8.502;2022-07-23T04:07:07;22.20;99.90
2010;DHT22;1008;47.404;8.502;2022-07-23T04:09:34;22.20;99.90
2010;DHT22;1008;47.404;8.502;2022-07-23T04:12:01;22.30;99.90
2010;DHT22;1008;47.404;8.502;2022-07-23T04:14:29;22.30;99.90
2010;DHT22;1008;47.404;8.502;2022-07-23T04:16:56;22.30;99.90
2010;DHT22;1008;47.404;8.502;2022-07-23T04:19:22;22.30;99.90
2010;DHT22;1008;47.404;8.502;2022-07-23T04:21:49;22.50;99.90
2010;DHT22;1008;47.404;8.502;2022-07-23T04:24:16;22.20;99.90
2010;DHT22;1008;47.404;8.502;2022-07-23T04:26:43;22.30;99.90
2010;DHT22;1008;47.404;8.502;2022-07-23T04:29:10;22.30;99.90
2010;DHT22;1008;47.404;8.502;2022-07-23T04:31:38;22.30;99.90
2010;DHT22;1008;47.404;8.502;2022-07-23T04:34:05;22.30;99.90
2010;DHT22;1008;47.404;8.502;2022-07-23T04:36:31;22.30;99.90
2010;DHT22;1008;47.404;8.502;2022-07-23T04:38:58;22.40;99.90
2010;DHT22;1008;47.404;8.502;2022-07-23T04:41:25;22.50;99.90
2010;DHT22;1008;47.404;8.502;2022-07-23T04:43:52;22.30;99.90
2010;DHT22;1008;47.404;8.502;2022-07-23T04:46:18;22.30;99.90
2010;DHT22;1008;47.404;8.502;2022-07-23T04:48:46;22.30;99.90
2010;DHT22;1008;47.404;8.502;2022-07-23T04:51:13;22.30;99.90
2010;DHT22;1008;47.404;8.502;2022-07-23T04:53:40;22.20;99.90
2010;DHT22;1008;47.404;8.502;2022-07-23T04:56:07;22.10;99.90
2010;DHT22;1008;47.404;8.502;2022-07-23T04:58:34;22.20;99.90
2010;DHT22;1008;47.404;8.502;2022-07-23T05:01:00;22.50;99.90
2010;DHT22;1008;47.404;8.502;2022-07-23T05:03:27;22.20;99.90
2010;DHT22;1008;47.404;8.502;2022-07-23T05:05:55;22.20;99.90
2010;DHT22;1008;47.404;8.502;2022-07-23T05:08:22;22.20;99.90
2010;DHT22;1008;47.404;8.502;2022-07-23T05:10:49;22.10;99.90
2010;DHT22;1008;47.404;8.502;2022-07-23T05:13:16;22.00;99.90
2010;DHT22;1008;47.404;8.502;2022-07-23T05:15:42;22.00;99.90
2010;DHT22;1008;47.404;8.502;2022-07-23T05:18:09;22.00;99.90
2010;DHT22;1008;47.404;8.502;2022-07-23T05:20:36;21.80;99.90
2010;DHT22;1008;47.404;8.502;2022-07-23T05:23:06;21.90;99.90
2010;DHT22;1008;47.404;8.502;2022-07-23T05:25:33;21.90;99.90
2010;DHT22;1008;47.404;8.502;2022-07-23T05:28:00;21.60;99.90
2010;DHT22;1008;47.404;8.502;2022-07-23T05:30:26;21.30;99.90
2010;DHT22;1008;47.404;8.502;2022-07-23T05:32:53;21.10;99.90
2010;DHT22;1008;47.404;8.502;2022-07-23T05:35:20;21.10;99.90
2010;DHT22;1008;47.404;8.502;2022-07-23T05:37:47;21.20;99.90
2010;DHT22;1008;47.404;8.502;2022-07-23T05:40:15;21.10;99.90
2010;DHT22;1008;47.404;8.502;2022-07-23T05:42:42;21.20;99.90
2010;DHT22;1008;47.404;8.502;2022-07-23T05:45:09;21.30;99.90
2010;DHT22;1008;47.404;8.502;2022-07-23T05:47:41;21.30;99.90
2010;DHT22;1008;47.404;8.502;2022-07-23T05:50:09;21.20;99.90
2010;DHT22;1008;47.404;8.502;2022-07-23T05:52:36;21.40;99.90
2010;DHT22;1008;47.404;8.502;2022-07-23T05:55:04;21.50;99.90
2010;DHT22;1008;47.404;8.502;2022-07-23T05:57:32;21.50;99.90
2010;DHT22;1008;47.404;8.502;2022-07-23T05:59:59;21.70;99.90
2010;DHT22;1008;47.404;8.502;2022-07-23T06:02:26;21.80;99.90
2010;DHT22;1008;47.404;8.502;2022-07-23T06:04:53;22.00;99.90
2010;DHT22;1008;47.404;8.502;2022-07-23T06:07:19;21.70;99.90
2010;DHT22;1008;47.404;8.502;2022-07-23T06:09:46;21.20;99.90
2010;DHT22;1008;47.404;8.502;2022-07-23T06:12:14;21.00;99.90
2010;DHT22;1008;47.404;8.502;2022-07-23T06:14:42;21.00;99.90
2010;DHT22;1008;47.404;8.502;2022-07-23T06:17:09;20.80;99.90
2010;DHT22;1008;47.404;8.502;2022-07-23T06:19:36;20.80;99.90
2010;DHT22;1008;47.404;8.502;2022-07-23T06:22:03;20.80;99.90
2010;DHT22;1008;47.404;8.502;2022-07-23T06:24:29;20.60;99.90
2010;DHT22;1008;47.404;8.502;2022-07-23T06:26:56;20.50;99.90
2010;DHT22;1008;47.404;8.502;2022-07-23T06:29:23;20.60;99.90
2010;DHT22;1008;47.404;8.502;2022-07-23T06:31:51;20.50;99.90
2010;DHT22;1008;47.404;8.502;2022-07-23T06:34:18;20.50;99.90
2010;DHT22;1008;47.404;8.502;2022-07-23T06:36:45;20.70;99.90
2010;DHT22;1008;47.404;8.502;2022-07-23T06:39:11;21.10;99.90
2010;DHT22;1008;47.404;8.502;2022-07-23T06:41:38;20.90;99.90
2010;DHT22;1008;47.404;8.502;2022-07-23T06:44:05;20.80;99.90
2010;DHT22;1008;47.404;8.502;2022-07-23T06:46:31;20.60;99.90
2010;DHT22;1008;47.404;8.502;2022-07-23T06:49:00;20.50;99.90
2010;DHT22;1008;47.404;8.502;2022-07-23T06:51:27;20.60;99.90
2010;DHT22;1008;47.404;8.502;2022-07-23T06:53:53;20.70;99.90
2010;DHT22;1008;47.404;8.502;2022-07-23T06:56:20;20.60;99.90
2010;DHT22;1008;47.404;8.502;2022-07-23T06:58:47;20.70;99.90
2010;DHT22;1008;47.404;8.502;2022-07-23T07:01:13;20.80;99.90
2010;DHT22;1008;47.404;8.502;2022-07-23T07:03:40;20.70;99.90
2010;DHT22;1008;47.404;8.502;2022-07-23T07:06:08;20.70;99.90
2010;DHT22;1008;47.404;8.502;2022-07-23T07:08:35;20.80;99.90
2010;DHT22;1008;47.404;8.502;2022-07-23T07:11:03;21.10;99.90
2010;DHT22;1008;47.404;8.502;2022-07-23T07:13:29;21.30;99.90
2010;DHT22;1008;47.404;8.502;2022-07-23T07:15:57;21.40;99.90
2010;DHT22;1008;47.404;8.502;2022-07-23T07:18:24;21.30;99.90
2010;DHT22;1008;47.404;8.502;2022-07-23T07:20:50;21.30;99.90
2010;DHT22;1008;47.404;8.502;2022-07-23T07:23:19;21.10;99.90
2010;DHT22;1008;47.404;8.502;2022-07-23T07:25:46;21.10;99.90
2010;DHT22;1008;47.404;8.502;2022-07-23T07:28:12;21.00;99.90
2010;DHT22;1008;47.404;8.502;2022-07-23T07:30:39;21.00;99.90
2010;DHT22;1008;47.404;8.502;2022-07-23T07:33:06;20.80;99.90
2010;DHT22;1008;47.404;8.502;2022-07-23T07:35:33;20.90;99.90
2010;DHT22;1008;47.404;8.502;2022-07-23T07:38:00;20.90;99.90
2010;DHT22;1008;47.404;8.502;2022-07-23T07:40:28;20.80;99.90
2010;DHT22;1008;47.404;8.502;2022-07-23T07:42:55;20.80;99.90
2010;DHT22;1008;47.404;8.502;2022-07-23T07:45:24;20.70;99.90
2010;DHT22;1008;47.404;8.502;2022-07-23T07:47:51;20.80;99.90
2010;DHT22;1008;47.404;8.502;2022-07-23T07:50:18;20.90;99.90
2010;DHT22;1008;47.404;8.502;2022-07-23T07:52:45;20.90;99.90
2010;DHT22;1008;47.404;8.502;2022-07-23T07:55:12;21.00;99.90
2010;DHT22;1008;47.404;8.502;2022-07-23T07:57:41;20.90;99.90
2010;DHT22;1008;47.404;8.502;2022-07-23T08:00:09;20.90;99.90
2010;DHT22;1008;47.404;8.502;2022-07-23T08:02:43;20.90;99.90
2010;DHT22;1008;47.404;8.502;2022-07-23T08:05:11;21.00;99.90
2010;DHT22;1008;47.404;8.502;2022-07-23T08:07:38;21.10;99.90
2010;DHT22;1008;47.404;8.502;2022-07-23T08:10:06;21.10;99.90
2010;DHT22;1008;47.404;8.502;2022-07-23T08:12:43;21.20;99.90
2010;DHT22;1008;47.404;8.502;2022-07-23T08:15:12;21.40;99.90
2010;DHT22;1008;47.404;8.502;2022-07-23T08:17:38;21.70;99.90
2010;DHT22;1008;47.404;8.502;2022-07-23T08:20:06;21.90;99.90
2010;DHT22;1008;47.404;8.502;2022-07-23T08:22:44;22.00;99.90
2010;DHT22;1008;47.404;8.502;2022-07-23T08:25:11;22.00;99.90
2010;DHT22;1008;47.404;8.502;2022-07-23T08:27:38;22.10;99.90
2010;DHT22;1008;47.404;8.502;2022-07-23T08:30:07;22.00;99.90
2010;DHT22;1008;47.404;8.502;2022-07-23T08:32:48;22.10;99.90
2010;DHT22;1008;47.404;8.502;2022-07-23T08:35:15;22.00;99.90
2010;DHT22;1008;47.404;8.502;2022-07-23T08:37:42;22.10;99.90
2010;DHT22;1008;47.404;8.502;2022-07-23T08:40:10;21.90;99.90
2010;DHT22;1008;47.404;8.502;2022-07-23T08:42:37;21.90;99.90
2010;DHT22;1008;47.404;8.502;2022-07-23T08:45:07;21.90;99.90
2010;DHT22;1008;47.404;8.502;2022-07-23T08:47:36;22.00;99.90
2010;DHT22;1008;47.404;8.502;2022-07-23T08:50:04;21.90;99.90
2010;DHT22;1008;47.404;8.502;2022-07-23T08:52:31;21.80;99.90
2010;DHT22;1008;47.404;8.502;2022-07-23T08:54:59;21.90;99.90
2010;DHT22;1008;47.404;8.502;2022-07-23T08:57:26;21.80;99.90
2010;DHT22;1008;47.404;8.502;2022-07-23T08:59:53;22.10;99.90
2010;DHT22;1008;47.404;8.502;2022-07-23T09:02:21;22.30;99.90
2010;DHT22;1008;47.404;8.502;2022-07-23T09:04:48;22.00;99.90
2010;DHT22;1008;47.404;8.502;2022-07-23T09:07:14;21.90;99.90
2010;DHT22;1008;47.404;8.502;2022-07-23T09:09:41;21.80;99.90
2010;DHT22;1008;47.404;8.502;2022-07-23T09:12:10;21.60;99.90
2010;DHT22;1008;47.404;8.502;2022-07-23T09:14:38;21.60;99.90
2010;DHT22;1008;47.404;8.502;2022-07-23T09:17:16;21.50;99.90
2010;DHT22;1008;47.404;8.502;2022-07-23T09:19:45;21.40;99.90
2010;DHT22;1008;47.404;8.502;2022-07-23T09:22:19;21.20;99.90
2010;DHT22;1008;47.404;8.502;2022-07-23T09:25:10;21.40;99.90
2010;DHT22;1008;47.404;8.502;2022-07-23T09:27:48;21.60;99.90
2010;DHT22;1008;47.404;8.502;2022-07-23T09:30:16;21.20;99.90
2010;DHT22;1008;47.404;8.502;2022-07-23T09:32:43;21.20;99.90
2010;DHT22;1008;47.404;8.502;2022-07-23T09:35:11;21.10;99.90
2010;DHT22;1008;47.404;8.502;2022-07-23T09:37:38;21.10;99.90
2010;DHT22;1008;47.404;8.502;2022-07-23T09:40:06;21.20;99.90
2010;DHT22;1008;47.404;8.502;2022-07-23T09:42:34;21.30;99.90
2010;DHT22;1008;47.404;8.502;2022-07-23T09:45:02;21.60;99.90
2010;DHT22;1008;47.404;8.502;2022-07-23T09:47:31;21.70;99.90
2010;DHT22;1008;47.404;8.502;2022-07-23T09:49:59;21.60;99.90
2010;DHT22;1008;47.404;8.502;2022-07-23T09:52:28;21.50;99.90
2010;DHT22;1008;47.404;8.502;2022-07-23T09:54:59;21.60;99.90
2010;DHT22;1008;47.404;8.502;2022-07-23T09:57:27;21.70;99.90
2010;DHT22;1008;47.404;8.502;2022-07-23T10:00:02;21.60;99.90
2010;DHT22;1008;47.404;8.502;2022-07-23T10:02:32;21.70;99.90
2010;DHT22;1008;47.404;8.502;2022-07-23T10:05:01;21.70;99.90
2010;DHT22;1008;47.404;8.502;2022-07-23T10:07:32;21.80;99.90
2010;DHT22;1008;47.404;8.502;2022-07-23T10:10:00;21.70;99.90
2010;DHT22;1008;47.404;8.502;2022-07-23T10:12:27;21.50;99.90
2010;DHT22;1008;47.404;8.502;2022-07-23T10:15:08;21.60;99.90
2010;DHT22;1008;47.404;8.502;2022-07-23T10:17:35;21.50;99.90
2010;DHT22;1008;47.404;8.502;2022-07-23T10:20:03;21.40;99.90
2010;DHT22;1008;47.404;8.502;2022-07-23T10:22:34;21.50;99.90
2010;DHT22;1008;47.404;8.502;2022-07-23T10:25:12;21.60;99.90
2010;DHT22;1008;47.404;8.502;2022-07-23T10:28:00;21.60;99.90
2010;DHT22;1008;47.404;8.502;2022-07-23T10:30:35;21.70;99.90
2010;DHT22;1008;47.404;8.502;2022-07-23T10:33:17;21.50;99.90
2010;DHT22;1008;47.404;8.502;2022-07-23T10:35:52;21.70;99.90
2010;DHT22;1008;47.404;8.502;2022-07-23T10:38:24;21.70;99.90
2010;DHT22;1008;47.404;8.502;2022-07-23T10:40:56;21.70;99.90
2010;DHT22;1008;47.404;8.502;2022-07-23T10:43:23;21.50;99.90
2010;DHT22;1008;47.404;8.502;2022-07-23T10:45:50;21.50;99.90
2010;DHT22;1008;47.404;8.502;2022-07-23T10:48:19;21.60;99.90
2010;DHT22;1008;47.404;8.502;2022-07-23T10:51:08;21.60;99.90
2010;DHT22;1008;47.404;8.502;2022-07-23T10:53:57;21.70;99.90
2010;DHT22;1008;47.404;8.502;2022-07-23T10:59:28;21.90;99.90
2010;DHT22;1008;47.404;8.502;2022-07-23T11:02:21;22.00;99.90
2010;DHT22;1008;47.404;8.502;2022-07-23T11:04:48;22.10;99.90
2010;DHT22;1008;47.404;8.502;2022-07-23T11:07:15;22.40;99.90
2010;DHT22;1008;47.404;8.502;2022-07-23T11:09:44;22.40;99.90
2010;DHT22;1008;47.404;8.502;2022-07-23T11:12:36;22.40;99.90
2010;DHT22;1008;47.404;8.502;2022-07-23T11:15:05;22.70;99.90
2010;DHT22;1008;47.404;8.502;2022-07-23T11:17:34;23.10;99.90
2010;DHT22;1008;47.404;8.502;2022-07-23T11:20:16;23.70;99.90
2010;DHT22;1008;47.404;8.502;2022-07-23T11:22:48;23.90;99.90
2010;DHT22;1008;47.404;8.502;2022-07-23T11:25:33;24.00;99.90
2010;DHT22;1008;47.404;8.502;2022-07-23T11:28:17;24.10;99.90
2010;DHT22;1008;47.404;8.502;2022-07-23T11:30:47;24.60;99.90
2010;DHT22;1008;47.404;8.502;2022-07-23T11:33:20;24.60;99.90
2010;DHT22;1008;47.404;8.502;2022-07-23T11:35:59;24.80;99.90
2010;DHT22;1008;47.404;8.502;2022-07-23T11:38:27;24.60;99.90
2010;DHT22;1008;47.404;8.502;2022-07-23T11:40:57;24.90;99.90
2010;DHT22;1008;47.404;8.502;2022-07-23T11:43:25;25.40;99.90
2010;DHT22;1008;47.404;8.502;2022-07-23T11:45:53;25.60;99.90
2010;DHT22;1008;47.404;8.502;2022-07-23T11:48:21;25.80;99.90
2010;DHT22;1008;47.404;8.502;2022-07-23T11:50:49;25.90;99.90
2010;DHT22;1008;47.404;8.502;2022-07-23T11:53:22;25.90;99.90
2010;DHT22;1008;47.404;8.502;2022-07-23T11:55:49;25.70;99.90
2010;DHT22;1008;47.404;8.502;2022-07-23T11:58:17;25.80;99.90
2010;DHT22;1008;47.404;8.502;2022-07-23T12:00:44;26.00;99.90
2010;DHT22;1008;47.404;8.502;2022-07-23T12:03:10;26.20;99.90
2010;DHT22;1008;47.404;8.502;2022-07-23T12:05:38;26.50;99.90
2010;DHT22;1008;47.404;8.502;2022-07-23T12:08:06;26.40;99.90
2010;DHT22;1008;47.404;8.502;2022-07-23T12:10:35;26.30;99.90
2010;DHT22;1008;47.404;8.502;2022-07-23T12:13:07;26.00;99.90
2010;DHT22;1008;47.404;8.502;2022-07-23T12:15:38;25.80;99.90
2010;DHT22;1008;47.404;8.502;2022-07-23T12:18:07;26.10;99.90
2010;DHT22;1008;47.404;8.502;2022-07-23T12:20:36;26.20;99.90
2010;DHT22;1008;47.404;8.502;2022-07-23T12:23:05;26.60;99.90
2010;DHT22;1008;47.404;8.502;2022-07-23T12:25:33;27.20;99.90
2010;DHT22;1008;47.404;8.502;2022-07-23T12:28:03;27.10;99.90
2010;DHT22;1008;47.404;8.502;2022-07-23T12:30:32;27.20;99.90
2010;DHT22;1008;47.404;8.502;2022-07-23T12:33:03;26.70;99.90
2010;DHT22;1008;47.404;8.502;2022-07-23T12:35:34;27.10;99.90
2010;DHT22;1008;47.404;8.502;2022-07-23T12:38:04;27.10;99.90
2010;DHT22;1008;47.404;8.502;2022-07-23T12:40:32;27.60;99.90
2010;DHT22;1008;47.404;8.502;2022-07-23T12:43:01;27.80;99.90
2010;DHT22;1008;47.404;8.502;2022-07-23T12:45:42;27.60;99.90
2010;DHT22;1008;47.404;8.502;2022-07-23T12:48:20;27.40;99.90
2010;DHT22;1008;47.404;8.502;2022-07-23T12:50:58;27.90;99.90
2010;DHT22;1008;47.404;8.502;2022-07-23T12:53:28;28.20;99.90
2010;DHT22;1008;47.404;8.502;2022-07-23T12:56:04;28.20;99.90
2010;DHT22;1008;47.404;8.502;2022-07-23T12:58:43;28.20;99.90
2010;DHT22;1008;47.404;8.502;2022-07-23T13:01:22;28.30;99.90
2010;DHT22;1008;47.404;8.502;2022-07-23T13:03:57;28.20;99.90
2010;DHT22;1008;47.404;8.502;2022-07-23T13:06:24;27.90;99.90
2010;DHT22;1008;47.404;8.502;2022-07-23T13:08:51;28.20;99.90
2010;DHT22;1008;47.404;8.502;2022-07-23T13:11:18;28.10;99.90
2010;DHT22;1008;47.404;8.502;2022-07-23T13:13:45;28.10;99.90
2010;DHT22;1008;47.404;8.502;2022-07-23T13:16:12;28.20;99.90
2010;DHT22;1008;47.404;8.502;2022-07-23T13:18:38;28.00;99.90
2010;DHT22;1008;47.404;8.502;2022-07-23T13:21:07;28.10;99.90
2010;DHT22;1008;47.404;8.502;2022-07-23T13:23:33;28.10;99.90
2010;DHT22;1008;47.404;8.502;2022-07-23T13:26:00;28.40;99.90
2010;DHT22;1008;47.404;8.502;2022-07-23T13:28:27;28.10;99.90
2010;DHT22;1008;47.404;8.502;2022-07-23T13:30:54;28.00;99.90
2010;DHT22;1008;47.404;8.502;2022-07-23T13:33:23;28.10;99.90
2010;DHT22;1008;47.404;8.502;2022-07-23T13:35:51;28.00;99.90
2010;DHT22;1008;47.404;8.502;2022-07-23T13:38:20;27.90;99.90
2010;DHT22;1008;47.404;8.502;2022-07-23T13:40:49;27.80;99.90
2010;DHT22;1008;47.404;8.502;2022-07-23T13:43:20;28.00;99.90
2010;DHT22;1008;47.404;8.502;2022-07-23T13:45:47;28.10;99.90
2010;DHT22;1008;47.404;8.502;2022-07-23T13:48:15;28.20;99.90
2010;DHT22;1008;47.404;8.502;2022-07-23T13:50:42;28.20;99.90
2010;DHT22;1008;47.404;8.502;2022-07-23T13:53:11;28.70;99.90
2010;DHT22;1008;47.404;8.502;2022-07-23T13:55:39;29.00;99.90
2010;DHT22;1008;47.404;8.502;2022-07-23T13:58:07;29.10;99.90
2010;DHT22;1008;47.404;8.502;2022-07-23T14:00:36;29.40;99.90
2010;DHT22;1008;47.404;8.502;2022-07-23T14:03:03;29.80;99.90
2010;DHT22;1008;47.404;8.502;2022-07-23T14:05:30;29.90;99.90
2010;DHT22;1008;47.404;8.502;2022-07-23T14:07:57;29.70;99.90
2010;DHT22;1008;47.404;8.502;2022-07-23T14:10:24;29.60;99.90
2010;DHT22;1008;47.404;8.502;2022-07-23T14:12:52;29.50;99.90
2010;DHT22;1008;47.404;8.502;2022-07-23T14:15:22;29.90;99.90
2010;DHT22;1008;47.404;8.502;2022-07-23T14:17:49;30.20;99.90
2010;DHT22;1008;47.404;8.502;2022-07-23T14:20:16;29.60;99.90
2010;DHT22;1008;47.404;8.502;2022-07-23T14:22:43;29.20;99.90
2010;DHT22;1008;47.404;8.502;2022-07-23T14:25:10;29.50;99.90
2010;DHT22;1008;47.404;8.502;2022-07-23T14:27:37;29.80;99.90
2010;DHT22;1008;47.404;8.502;2022-07-23T14:30:07;30.10;99.90
2010;DHT22;1008;47.404;8.502;2022-07-23T14:32:34;30.00;99.90
2010;DHT22;1008;47.404;8.502;2022-07-23T14:35:01;29.90;99.90
2010;DHT22;1008;47.404;8.502;2022-07-23T14:37:28;30.30;99.90
2010;DHT22;1008;47.404;8.502;2022-07-23T14:39:55;30.20;99.90
2010;DHT22;1008;47.404;8.502;2022-07-23T14:42:24;30.10;99.90
2010;DHT22;1008;47.404;8.502;2022-07-23T14:44:51;30.40;99.90
2010;DHT22;1008;47.404;8.502;2022-07-23T14:47:19;30.70;99.90
2010;DHT22;1008;47.404;8.502;2022-07-23T14:49:47;30.70;99.90
2010;DHT22;1008;47.404;8.502;2022-07-23T14:52:13;30.40;99.90
2010;DHT22;1008;47.404;8.502;2022-07-23T14:54:40;30.50;99.90
2010;DHT22;1008;47.404;8.502;2022-07-23T14:57:07;30.50;99.90
2010;DHT22;1008;47.404;8.502;2022-07-23T14:59:35;30.20;99.90
2010;DHT22;1008;47.404;8.502;2022-07-23T15:02:02;29.80;99.90
2010;DHT22;1008;47.404;8.502;2022-07-23T15:04:30;29.50;99.90
2010;DHT22;1008;47.404;8.502;2022-07-23T15:06:56;29.20;99.90
2010;DHT22;1008;47.404;8.502;2022-07-23T15:09:23;28.90;99.90
2010;DHT22;1008;47.404;8.502;2022-07-23T15:11:50;29.10;99.90
2010;DHT22;1008;47.404;8.502;2022-07-23T15:14:17;29.40;99.90
2010;DHT22;1008;47.404;8.502;2022-07-23T15:16:43;29.50;99.90
2010;DHT22;1008;47.404;8.502;2022-07-23T15:19:10;29.70;99.90
2010;DHT22;1008;47.404;8.502;2022-07-23T15:21:38;29.70;99.90
2010;DHT22;1008;47.404;8.502;2022-07-23T15:24:05;29.70;99.90
2010;DHT22;1008;47.404;8.502;2022-07-23T15:26:32;29.70;99.90
2010;DHT22;1008;47.404;8.502;2022-07-23T15:28:59;29.90;99.90
2010;DHT22;1008;47.404;8.502;2022-07-23T15:31:28;29.90;99.90
2010;DHT22;1008;47.404;8.502;2022-07-23T15:33:54;29.70;99.90
2010;DHT22;1008;47.404;8.502;2022-07-23T15:36:21;29.80;99.90
2010;DHT22;1008;47.404;8.502;2022-07-23T15:38:49;29.90;99.90
2010;DHT22;1008;47.404;8.502;2022-07-23T15:41:16;29.90;99.90
2010;DHT22;1008;47.404;8.502;2022-07-23T15:43:43;30.00;99.90
2010;DHT22;1008;47.404;8.502;2022-07-23T15:46:10;29.80;99.90
2010;DHT22;1008;47.404;8.502;2022-07-23T15:48:37;29.40;99.90
2010;DHT22;1008;47.404;8.502;2022-07-23T15:51:05;29.40;99.90
2010;DHT22;1008;47.404;8.502;2022-07-23T15:53:31;29.50;99.90
2010;DHT22;1008;47.404;8.502;2022-07-23T15:56:00;29.50;99.90
2010;DHT22;1008;47.404;8.502;2022-07-23T15:58:27;29.60;99.90
2010;DHT22;1008;47.404;8.502;2022-07-23T16:00:54;29.90;99.90
2010;DHT22;1008;47.404;8.502;2022-07-23T16:03:21;29.80;99.90
2010;DHT22;1008;47.404;8.502;2022-07-23T16:05:48;29.10;99.90
2010;DHT22;1008;47.404;8.502;2022-07-23T16:08:15;29.10;99.90
2010;DHT22;1008;47.404;8.502;2022-07-23T16:10:42;28.80;99.90
2010;DHT22;1008;47.404;8.502;2022-07-23T16:13:10;28.90;99.90